Hlavní strana
METAR-TAF:

METAR-TAF

Letiště :

Luleå, Švédsko

zeměpisná šířka: 65-33N, zeměpisná délka: 022-08E, výška: 17 m

Aktuální stav počasí

Zpráva byla vytvořena před 16 minutami, v 15:50 UTC
Západní vítr 11 kt
Teplota 8°C
Vlhkost vzduchu 66%
Tlak 1012 hPa
Viditelnost 10 km a více
Žádná oblačnost pod 1500 m, nevyskytují se cumulonimby.

METAR: ESPA 281550Z 28011KT CAVOK 08/02 Q1012

Čas: 17:06 (16:06 UTC)

Předpověď počasí

Zpráva byla vytvořena před 1 hodinou a 36 minutami, v 14:30 UTC
Předpověď platná od 28 v 15 UTC do 28 v 23 UTC
Západní vítr 8 kt
Viditelnost 10 km a více
Žádná oblačnost pod 1500 m, nevyskytují se cumulonimby.
Pravděpodobnost 40%
od 28 v 15 UTC do 28 v 23 UTC
Západní vítr 15 kt s nárazy do 25 kt

TAF: ESPA 281430Z 2815/2823 26008KT CAVOK PROB40 2815/2823 26015G25KT

Stav a předpovědi počasí z více než 4 000 letišť (zprávy METAR a TAF).

Červené a žluté tečky na mapě představují dostupné meteorologické stanice.

Když kurzor umístíte na tečku, zobrazí se název stanice.

Pak kliknutím zobrazíte stav a předpověď počasí.

Chcete-li změnit mapu, kliknutím na zelené tlačítko se znaménkem +mapu přiblížíte, kliknutím na zelené tlačítko se znaménkem – mapu oddálíte a kliknutím na zelené šipky přejdete na sousední mapy.


METAR-TAF: